Raceland, Louisiana
Current Conditions -  °F | °C
As of 9:50 AM on Tuesday 25 Nov 2014 (Local Time) from KHUM Reporting Station
Overcast Overcast  
Wind Chill: 13°   Ceiling: 10000
Heat Index: 13°   Visibility: 7mi
Dew Point:   Wind: 115mph
Humidity: 47%   Direction: 10°N
Pressure: 30.19"   Gusts: NA
Location:  29.73°N, 90.61°W
Report Text: KHUM 251550Z 010100KT 7SM OVC100 13/02 A3019 RMK RY12/30 CLOSED RY 36 IN USE ATIS C. LJ
Loading
Personal Weather Stations






























Interactive Weather Map New forecast layout! Learn more

10-Day Weather Forecast

Advertisements
Track Severe Weather on mobile